Time;durP1;ratioP1;P1;durP2;ratioP2;P2;SDS_P1;SDS_P2;PMS_P1;PMS_P2;Temp;Humidity;BMP_temperature;BMP_pressure;BME280_temperature;BME280_humidity;BME280_pressure;Samples;Min_cycle;Max_cycle;Signal;HPM_P1;HPM_P2
2022/04/06 00:01:19;;;;;;;27.13;14.80;;;;;;;6.18;nan;-23989.53;4975158;28;20213;-71
2022/04/06 00:03:44;;;;;;;28.63;15.20;;;;;;;5.94;nan;-23982.72;4975187;28;20566;-71
2022/04/06 00:06:10;;;;;;;29.07;14.93;;;;;;;6.10;nan;-23987.13;4974972;28;20557;-71
2022/04/06 00:08:35;;;;;;;21.97;14.63;;;;;;;5.92;nan;-23982.00;4958092;28;20209;-72
2022/04/06 00:11:01;;;;;;;24.30;14.70;;;;;;;5.72;nan;-23976.59;4975132;28;20637;-72
2022/04/06 00:13:26;;;;;;;27.30;15.67;;;;;;;5.69;nan;-23975.75;4975305;28;20184;-72
2022/04/06 00:15:51;;;;;;;23.33;14.93;;;;;;;5.74;nan;-23977.03;4974834;28;20181;-71
2022/04/06 00:18:17;;;;;;;24.53;15.50;;;;;;;6.08;nan;-23986.56;4975162;28;20650;-71
2022/04/06 00:20:42;;;;;;;28.73;15.93;;;;;;;5.80;nan;-23978.72;4975116;28;20188;-70
2022/04/06 00:23:08;;;;;;;22.77;15.33;;;;;;;5.82;nan;-23979.31;4974871;28;20213;-72
2022/04/06 00:25:34;;;;;;;26.83;16.83;;;;;;;5.87;nan;-23980.72;4974495;28;20178;-72
2022/04/06 00:28:00;;;;;;;25.83;16.60;;;;;;;5.90;nan;-23981.56;4976386;28;20205;-72
2022/04/06 00:30:25;;;;;;;27.03;16.80;;;;;;;5.86;nan;-23980.28;4974924;28;20629;-71
2022/04/06 00:32:51;;;;;;;24.93;16.60;;;;;;;5.88;nan;-23981.00;4993666;28;20182;-71
2022/04/06 00:35:28;;;;;;;24.17;15.83;;;;;;;5.81;nan;-23978.88;4996589;28;20182;-72
2022/04/06 00:38:04;;;;;;;25.23;16.33;;;;;;;6.09;nan;-23986.97;4984949;28;20176;-70
2022/04/06 00:40:32;;;;;;;25.70;15.97;;;;;;;6.16;nan;-23988.81;4976790;28;20177;-72
2022/04/06 00:42:58;;;;;;;24.90;15.70;;;;;;;6.05;nan;-23985.84;4975102;28;20185;-70
2022/04/06 00:45:24;;;;;;;26.20;16.23;;;;;;;5.65;nan;-23974.59;4974988;28;20173;-72
2022/04/06 00:47:51;;;;;;;22.90;16.40;;;;;;;6.08;nan;-23986.69;4974989;28;20233;-72
2022/04/06 00:50:17;;;;;;;22.60;15.23;;;;;;;5.51;nan;-23970.63;4974808;28;20213;-71
2022/04/06 00:52:43;;;;;;;22.17;14.87;;;;;;;5.62;nan;-23973.63;4974963;28;20185;-72
2022/04/06 00:55:11;;;;;;;23.57;15.80;;;;;;;5.53;nan;-23971.06;4974666;28;20188;-71
2022/04/06 00:57:37;;;;;;;23.10;15.20;;;;;;;5.60;nan;-23973.19;4974311;28;20174;-73
2022/04/06 01:00:05;;;;;;;21.50;15.10;;;;;;;5.90;nan;-23981.44;4958621;28;20182;-72
2022/04/06 01:02:32;;;;;;;22.70;15.23;;;;;;;6.02;nan;-23984.97;4953660;28;20185;-71
2022/04/06 01:04:57;;;;;;;24.47;15.70;;;;;;;5.56;nan;-23971.91;4964115;28;20185;-71
2022/04/06 01:07:23;;;;;;;27.40;15.40;;;;;;;5.76;nan;-23977.75;4945376;29;20185;-71
2022/04/06 01:09:48;;;;;;;26.70;16.03;;;;;;;5.43;nan;-23968.22;4954988;29;20292;-72
2022/04/06 01:12:14;;;;;;;22.37;15.80;;;;;;;5.48;nan;-23969.63;4970765;28;20263;-72
2022/04/06 01:14:40;;;;;;;24.80;15.80;;;;;;;5.44;nan;-23968.63;4974209;28;20177;-71
2022/04/06 01:17:08;;;;;;;25.03;16.07;;;;;;;5.40;nan;-23967.38;4974208;28;20184;-72
2022/04/06 01:19:39;;;;;;;20.57;14.40;;;;;;;5.39;nan;-23967.06;4974269;28;20240;-71
2022/04/06 01:22:12;;;;;;;25.80;15.03;;;;;;;5.25;nan;-23963.25;4974237;28;20201;-71
2022/04/06 01:24:39;;;;;;;23.47;14.43;;;;;;;5.31;nan;-23964.94;4973724;28;20178;-72
2022/04/06 01:27:05;;;;;;;23.17;14.23;;;;;;;5.66;nan;-23974.75;4973944;28;20668;-72
2022/04/06 01:29:31;;;;;;;28.50;14.97;;;;;;;5.76;nan;-23977.59;4973910;28;20596;-71
2022/04/06 01:32:16;;;;;;;28.33;15.40;;;;;;;5.86;nan;-23980.44;4973912;28;20637;-71
2022/04/06 01:34:43;;;;;;;25.20;14.27;;;;;;;6.03;nan;-23985.13;4967181;28;20178;-71
2022/04/06 01:37:10;;;;;;;21.70;13.97;;;;;;;5.63;nan;-23973.91;4959468;28;20177;-72
2022/04/06 01:39:37;;;;;;;22.50;14.20;;;;;;;5.88;nan;-23980.88;4965104;28;20612;-72
2022/04/06 01:42:05;;;;;;;23.90;14.87;;;;;;;5.62;nan;-23973.75;4954688;29;20210;-71
2022/04/06 01:44:32;;;;;;;23.63;14.47;;;;;;;4.98;nan;-23955.56;4967845;28;20205;-72
2022/04/06 01:46:58;;;;;;;23.07;15.47;;;;;;;5.66;nan;-23974.75;4961722;28;20220;-72
2022/04/06 01:52:14;;;;;;;24.17;13.60;;;;;;;5.76;nan;-23977.59;4954121;29;20305;-73
2022/04/06 01:54:50;;;;;;;21.50;14.17;;;;;;;5.68;nan;-23975.47;4953745;29;20600;-72
2022/04/06 01:57:17;;;;;;;22.60;14.97;;;;;;;5.73;nan;-23976.75;4953893;29;20170;-73
2022/04/06 01:59:43;;;;;;;20.70;13.50;;;;;;;5.65;nan;-23974.47;4954128;29;20636;-72
2022/04/06 02:02:11;;;;;;;23.93;15.37;;;;;;;5.16;nan;-23960.69;4953376;29;20185;-72
2022/04/06 02:04:37;;;;;;;22.53;14.63;;;;;;;5.17;nan;-23960.97;4936349;29;20559;-70
2022/04/06 02:07:02;;;;;;;23.47;14.47;;;;;;;5.23;nan;-23962.81;4953488;29;20286;-71
2022/04/06 02:09:28;;;;;;;20.57;14.10;;;;;;;5.23;nan;-23962.66;4952684;29;20677;-70
2022/04/06 02:11:54;;;;;;;25.40;14.77;;;;;;;5.57;nan;-23972.19;4953195;28;20205;-71
2022/04/06 02:14:20;;;;;;;24.47;14.83;;;;;;;5.10;nan;-23958.97;4953482;29;20236;-70
2022/04/06 02:16:45;;;;;;;25.07;14.90;;;;;;;5.11;nan;-23959.25;4953249;29;20178;-71
2022/04/06 02:19:11;;;;;;;22.13;13.97;;;;;;;5.31;nan;-23964.94;4952211;28;20249;-72
2022/04/06 02:21:37;;;;;;;25.87;15.50;;;;;;;4.85;nan;-23952.16;4952799;28;20186;-71
2022/04/06 02:24:02;;;;;;;22.97;14.97;;;;;;;5.33;nan;-23965.50;4952413;29;20190;-72
2022/04/06 02:26:28;;;;;;;26.07;14.67;;;;;;;4.86;nan;-23952.44;4953355;29;20182;-72
2022/04/06 02:28:57;;;;;;;25.23;14.67;;;;;;;5.27;nan;-23963.94;4952627;29;20639;-71
2022/04/06 02:31:23;;;;;;;26.60;15.83;;;;;;;4.80;nan;-23950.56;4952555;29;20189;-70
2022/04/06 02:33:49;;;;;;;24.00;16.00;;;;;;;4.98;nan;-23955.69;4953695;29;20236;-72
2022/04/06 02:36:14;;;;;;;24.97;15.03;;;;;;;4.66;nan;-23946.59;4953979;28;20220;-73
2022/04/06 02:38:40;;;;;;;22.90;15.07;;;;;;;4.72;nan;-23948.44;4953408;29;20676;-73
2022/04/06 02:41:06;;;;;;;24.30;15.23;;;;;;;4.54;nan;-23943.19;4953622;29;20197;-71
2022/04/06 02:43:32;;;;;;;23.37;15.67;;;;;;;5.01;nan;-23956.56;4953759;28;20241;-73
2022/04/06 02:45:58;;;;;;;26.47;16.83;;;;;;;5.00;nan;-23956.25;4953245;28;20603;-73
2022/04/06 02:48:23;;;;;;;27.30;15.57;;;;;;;4.61;nan;-23945.31;4953911;28;20209;-73
2022/04/06 02:50:48;;;;;;;27.10;16.70;;;;;;;4.89;nan;-23953.28;4969810;28;20220;-71
2022/04/06 02:53:14;;;;;;;26.70;14.93;;;;;;;4.67;nan;-23947.03;4976992;28;20240;-71
2022/04/06 02:55:39;;;;;;;23.30;14.40;;;;;;;4.90;nan;-23953.56;4976692;28;20177;-73
2022/04/06 02:58:05;;;;;;;21.73;14.50;;;;;;;4.71;nan;-23948.03;4976765;28;20181;-72
2022/04/06 03:00:32;;;;;;;30.97;15.33;;;;;;;4.99;nan;-23955.84;4976411;28;20182;-72
2022/04/06 03:02:58;;;;;;;22.93;14.67;;;;;;;4.69;nan;-23947.59;4976753;28;20169;-71
2022/04/06 03:05:25;;;;;;;23.40;15.03;;;;;;;4.84;nan;-23951.72;4976509;28;20184;-71
2022/04/06 03:07:51;;;;;;;29.00;14.87;;;;;;;4.93;nan;-23954.28;4976333;28;20685;-71
2022/04/06 03:10:16;;;;;;;26.23;15.77;;;;;;;4.67;nan;-23946.88;4976312;28;20559;-72
2022/04/06 03:12:42;;;;;;;23.33;14.00;;;;;;;4.65;nan;-23946.31;4976357;28;20636;-72
2022/04/06 03:15:08;;;;;;;20.60;14.43;;;;;;;5.11;nan;-23959.41;4976120;28;20173;-71
2022/04/06 03:17:35;;;;;;;21.00;14.40;;;;;;;4.75;nan;-23949.16;4976675;28;20200;-72
2022/04/06 03:20:02;;;;;;;24.07;15.23;;;;;;;5.00;nan;-23956.13;4976487;28;20178;-71
2022/04/06 03:22:28;;;;;;;24.63;14.97;;;;;;;4.78;nan;-23950.00;4976465;28;20201;-72
2022/04/06 03:24:54;;;;;;;24.07;15.17;;;;;;;4.51;nan;-23942.31;4976013;28;20244;-71
2022/04/06 03:27:19;;;;;;;24.30;14.67;;;;;;;4.60;nan;-23944.88;4954672;28;20186;-72
2022/04/06 03:29:44;;;;;;;24.70;15.00;;;;;;;4.31;nan;-23936.78;4951035;28;20569;-72
2022/04/06 03:32:10;;;;;;;23.43;14.40;;;;;;;4.74;nan;-23948.88;4950705;28;20229;-73
2022/04/06 03:34:36;;;;;;;21.73;14.20;;;;;;;4.51;nan;-23942.47;4951148;28;20221;-72
2022/04/06 03:37:02;;;;;;;23.83;14.07;;;;;;;4.29;nan;-23936.34;4951241;28;20194;-71
2022/04/06 03:39:28;;;;;;;27.20;14.60;;;;;;;4.51;nan;-23942.31;4950613;28;20272;-72
2022/04/06 03:41:53;;;;;;;23.17;14.63;;;;;;;4.50;nan;-23942.03;4950922;28;20268;-73
2022/04/06 03:44:19;;;;;;;27.17;15.23;;;;;;;4.24;nan;-23934.78;4949954;28;20182;-72
2022/04/06 03:46:44;;;;;;;25.17;15.23;;;;;;;3.91;nan;-23925.53;4951402;28;20218;-72
2022/04/06 03:49:10;;;;;;;25.77;16.03;;;;;;;4.28;nan;-23935.91;4950113;28;20224;-72
2022/04/06 03:51:36;;;;;;;26.03;14.37;;;;;;;4.17;nan;-23932.78;4950669;28;20250;-72
2022/04/06 03:54:03;;;;;;;39.13;16.57;;;;;;;4.14;nan;-23931.94;4973763;28;20835;-72
2022/04/06 03:56:29;;;;;;;24.90;15.23;;;;;;;3.91;nan;-23925.53;4970460;28;20193;-72
2022/04/06 03:58:55;;;;;;;28.33;16.63;;;;;;;4.33;nan;-23937.34;4945734;29;20189;-71
2022/04/06 04:01:20;;;;;;;30.70;16.30;;;;;;;4.22;nan;-23934.34;4947180;28;20439;-72
2022/04/06 04:03:46;;;;;;;26.33;17.07;;;;;;;4.37;nan;-23938.63;4949395;29;20189;-70
2022/04/06 04:06:11;;;;;;;24.57;15.27;;;;;;;4.39;nan;-23939.19;4949083;29;20273;-72
2022/04/06 04:08:37;;;;;;;25.27;15.80;;;;;;;4.03;nan;-23928.78;4949847;29;20585;-72
2022/04/06 04:11:02;;;;;;;28.50;15.93;;;;;;;4.17;nan;-23932.94;4948605;29;20192;-71
2022/04/06 04:13:28;;;;;;;28.60;16.73;;;;;;;4.54;nan;-23943.31;4939213;29;20568;-73
2022/04/06 04:15:53;;;;;;;34.83;21.27;;;;;;;4.52;nan;-23942.75;4949463;29;20212;-71
2022/04/06 04:18:19;;;;;;;34.27;19.73;;;;;;;4.71;nan;-23948.16;4947905;29;20186;-72
2022/04/06 04:20:45;;;;;;;37.20;18.00;;;;;;;4.56;nan;-23943.75;4951502;29;20196;-72
2022/04/06 04:23:14;;;;;;;32.90;18.47;;;;;;;4.78;nan;-23950.00;4949186;28;20201;-72
2022/04/06 04:25:40;;;;;;;32.13;19.03;;;;;;;5.76;nan;-23977.75;4948688;28;20190;-72
2022/04/06 04:28:06;;;;;;;32.47;18.27;;;;;;;6.22;nan;-23990.66;4948134;29;20214;-73
2022/04/06 04:30:32;;;;;;;26.47;15.57;;;;;;;6.38;nan;-23994.94;4947789;29;20330;-75
2022/04/06 04:32:58;;;;;;;34.60;17.17;;;;;;;6.29;nan;-23992.50;4951376;29;20573;-75
2022/04/06 04:35:24;;;;;;;33.07;16.90;;;;;;;6.12;nan;-23987.81;4955755;29;20646;-73
2022/04/06 04:37:49;;;;;;;29.93;16.00;;;;;;;6.18;nan;-23989.38;4954709;28;20261;-74
2022/04/06 04:40:16;;;;;;;27.60;14.60;;;;;;;5.74;nan;-23977.03;4955255;29;20185;-74
2022/04/06 04:42:42;;;;;;;27.00;14.97;;;;;;;5.93;nan;-23982.28;4953676;28;20218;-73
2022/04/06 04:45:10;;;;;;;22.23;14.17;;;;;;;6.09;nan;-23986.84;4954916;29;20256;-73
2022/04/06 04:47:36;;;;;;;26.70;15.87;;;;;;;6.09;nan;-23986.97;4954999;28;20182;-73
2022/04/06 04:50:02;;;;;;;39.10;16.03;;;;;;;5.54;nan;-23971.47;4955647;29;20229;-71
2022/04/06 04:52:28;;;;;;;27.70;15.23;;;;;;;5.82;nan;-23979.31;4954684;28;20198;-72
2022/04/06 04:54:53;;;;;;;25.87;13.63;;;;;;;5.22;nan;-23962.53;4953495;29;20190;-72
2022/04/06 04:57:19;;;;;;;26.87;14.57;;;;;;;6.04;nan;-23985.41;4953742;29;20182;-72
2022/04/06 04:59:44;;;;;;;25.33;13.77;;;;;;;6.21;nan;-23990.25;4954196;29;20661;-72
2022/04/06 05:02:09;;;;;;;30.37;14.33;;;;;;;6.26;nan;-23991.66;4953787;29;20182;-72
2022/04/06 05:04:35;;;;;;;22.83;13.10;;;;;;;6.29;nan;-23992.38;4954284;29;20604;-71
2022/04/06 05:07:00;;;;;;;26.90;13.97;;;;;;;6.23;nan;-23990.81;4945174;28;20202;-72
2022/04/06 05:09:26;;;;;;;23.03;13.97;;;;;;;6.12;nan;-23987.81;4951736;29;20198;-72
2022/04/06 05:11:51;;;;;;;24.03;13.13;;;;;;;6.62;nan;-24001.75;4954090;28;20626;-72
2022/04/06 05:14:17;;;;;;;20.93;13.10;;;;;;;6.72;nan;-24004.56;4954200;29;20250;-72
2022/04/06 05:16:42;;;;;;;23.90;13.30;;;;;;;6.93;nan;-24010.53;4954302;29;20174;-71
2022/04/06 05:19:08;;;;;;;24.53;12.83;;;;;;;6.82;nan;-24007.41;4953773;29;20170;-72
2022/04/06 05:21:33;;;;;;;24.87;14.67;;;;;;;6.73;nan;-24004.88;4953480;28;20193;-73
2022/04/06 05:23:59;;;;;;;32.60;14.70;;;;;;;6.92;nan;-24010.25;4954050;29;20178;-73
2022/04/06 05:26:25;;;;;;;23.73;14.13;;;;;;;7.16;nan;-24016.91;4951494;29;20253;-72
2022/04/06 05:28:51;;;;;;;27.07;14.40;;;;;;;7.59;nan;-24028.81;4953940;28;20213;-73
2022/04/06 05:31:17;;;;;;;20.67;14.37;;;;;;;7.34;nan;-24021.88;4954173;29;20318;-73
2022/04/06 05:33:44;;;;;;;24.60;15.47;;;;;;;7.88;nan;-24037.03;4954306;29;20219;-71
2022/04/06 05:36:09;;;;;;;31.30;14.50;;;;;;;7.73;nan;-24032.78;4954097;29;20189;-73
2022/04/06 05:38:35;;;;;;;23.93;14.23;;;;;;;8.25;nan;-24047.38;4954565;28;20174;-72
2022/04/06 05:41:02;;;;;;;23.53;13.87;;;;;;;7.92;nan;-24038.19;4953999;28;20182;-73
2022/04/06 05:43:28;;;;;;;23.57;13.33;;;;;;;8.34;nan;-24049.94;4954189;28;20178;-72
2022/04/06 05:45:53;;;;;;;26.20;13.60;;;;;;;8.75;nan;-24061.53;4954304;28;20182;-72
2022/04/06 05:48:19;;;;;;;20.50;13.90;;;;;;;8.76;nan;-24061.81;4971805;28;20274;-72
2022/04/06 05:50:44;;;;;;;21.77;13.97;;;;;;;8.66;nan;-24059.00;4978143;28;20281;-72
2022/04/06 05:53:10;;;;;;;24.30;14.30;;;;;;;9.17;nan;-24073.28;4966736;29;20225;-72
2022/04/06 05:55:35;;;;;;;23.40;14.00;;;;;;;8.68;nan;-24059.56;4954322;28;20186;-67
2022/04/06 05:58:01;;;;;;;21.13;12.77;;;;;;;9.30;nan;-24076.81;4956125;28;20192;-69
2022/04/06 06:00:26;;;;;;;19.97;12.73;;;;;;;9.66;nan;-24086.84;4959177;28;20190;-67
2022/04/06 06:02:53;;;;;;;20.17;12.60;;;;;;;9.99;nan;-24096.03;4958730;28;20189;-70
2022/04/06 06:05:18;;;;;;;19.23;13.00;;;;;;;10.09;nan;-24099.00;4957482;28;20661;-71
2022/04/06 06:07:44;;;;;;;17.87;11.30;;;;;;;9.95;nan;-24095.03;4956971;28;20219;-69
2022/04/06 06:10:10;;;;;;;17.47;11.13;;;;;;;10.16;nan;-24100.84;4954430;28;20269;-67
2022/04/06 06:12:36;;;;;;;17.77;11.97;;;;;;;10.19;nan;-24101.69;4957284;28;20190;-66
2022/04/06 06:15:04;;;;;;;19.93;11.00;;;;;;;10.64;nan;-24114.38;4958084;28;20182;-71
2022/04/06 06:17:29;;;;;;;15.57;10.57;;;;;;;10.68;nan;-24115.38;4959167;28;20194;-68
2022/04/06 06:19:55;;;;;;;14.10;10.53;;;;;;;10.76;nan;-24117.63;4957416;28;20190;-66
2022/04/06 06:22:20;;;;;;;14.83;10.00;;;;;;;11.19;nan;-24129.47;4956893;28;20670;-68
2022/04/06 06:24:46;;;;;;;15.20;10.20;;;;;;;11.02;nan;-24124.81;4953440;28;20189;-70
2022/04/06 06:27:14;;;;;;;15.83;10.40;;;;;;;11.31;nan;-24133.00;4958341;28;20189;-70
2022/04/06 06:29:39;;;;;;;14.15;10.80;;;;;;;11.13;nan;-24127.78;4939019;28;20705;-69
2022/04/06 06:32:06;;;;;;;14.30;10.00;;;;;;;11.55;nan;-24139.47;4958623;28;20185;-66
2022/04/06 06:34:32;;;;;;;17.65;10.70;;;;;;;11.70;nan;-24143.69;4955366;28;20276;-67
2022/04/06 06:36:58;;;;;;;13.27;10.07;;;;;;;11.58;nan;-24140.31;4953382;29;20257;-70
2022/04/06 06:39:23;;;;;;;12.77;10.25;;;;;;;11.65;nan;-24142.28;4953217;29;20621;-65
2022/04/06 06:41:48;;;;;;;16.15;10.35;;;;;;;12.00;nan;-24152.16;4953643;29;20193;-69
2022/04/06 06:44:14;;;;;;;15.77;11.05;;;;;;;11.88;nan;-24148.78;4953429;29;20182;-67
2022/04/06 06:46:39;;;;;;;14.05;9.45;;;;;;;12.13;nan;-24155.81;4956216;28;20182;-71
2022/04/06 06:49:05;;;;;;;12.63;9.70;;;;;;;12.26;nan;-24159.34;4955587;28;20261;-69
2022/04/06 06:51:31;;;;;;;13.10;9.35;;;;;;;12.44;nan;-24164.25;4953526;29;20221;-71
2022/04/06 06:54:00;;;;;;;19.23;9.32;;;;;;;12.54;nan;-24167.06;4958105;28;20186;-68
2022/04/06 06:56:26;;;;;;;12.38;9.75;;;;;;;12.74;nan;-24172.84;4956194;28;20181;-66
2022/04/06 06:58:52;;;;;;;15.95;9.23;;;;;;;13.17;nan;-24184.66;4957057;28;20265;-68
2022/04/06 07:01:17;;;;;;;15.65;9.90;;;;;;;12.87;nan;-24176.22;4954789;29;20226;-67
2022/04/06 07:03:43;;;;;;;16.75;8.82;;;;;;;13.21;nan;-24185.91;4959180;28;20344;-70
2022/04/06 07:06:08;;;;;;;16.85;8.55;;;;;;;13.61;nan;-24197.00;4953300;28;20221;-68
2022/04/06 07:08:34;;;;;;;13.23;8.65;;;;;;;13.41;nan;-24191.38;4955001;28;20677;-71
2022/04/06 07:10:59;;;;;;;15.05;8.00;;;;;;;13.56;nan;-24195.47;4953207;29;20178;-67
2022/04/06 07:13:25;;;;;;;16.23;8.05;;;;;;;13.96;nan;-24206.56;4954971;28;20198;-67
2022/04/06 07:15:50;;;;;;;16.00;8.25;;;;;;;14.10;nan;-24210.50;4955043;28;20269;-70
2022/04/06 07:18:18;;;;;;;14.35;7.78;;;;;;;14.12;nan;-24211.19;4958184;28;20646;-68
2022/04/06 07:20:44;;;;;;;12.93;7.63;;;;;;;13.96;nan;-24206.56;4952474;28;20679;-69
2022/04/06 07:23:09;;;;;;;11.05;7.22;;;;;;;14.39;nan;-24218.63;4959326;28;20217;-68
2022/04/06 07:25:35;;;;;;;8.13;6.70;;;;;;;14.58;nan;-24223.81;4953392;29;20579;-66
2022/04/06 07:28:02;;;;;;;12.63;6.88;;;;;;;14.65;nan;-24225.63;4957945;28;20662;-68
2022/04/06 07:30:27;;;;;;;11.82;7.93;;;;;;;14.74;nan;-24228.31;4958010;28;20186;-69
2022/04/06 07:32:53;;;;;;;13.57;7.25;;;;;;;14.65;nan;-24225.78;4957778;28;20213;-69
2022/04/06 07:35:19;;;;;;;11.52;6.80;;;;;;;14.97;nan;-24234.75;4955238;28;20268;-66
2022/04/06 07:37:49;;;;;;;13.50;7.15;;;;;;;14.80;nan;-24229.84;4963200;28;20544;-70
2022/04/06 07:40:17;;;;;;;9.32;6.80;;;;;;;15.23;nan;-24241.75;4958596;28;20214;-70
2022/04/06 07:42:43;;;;;;;8.65;6.60;;;;;;;15.13;nan;-24239.09;4958159;28;20191;-69
2022/04/06 07:45:14;;;;;;;10.38;6.90;;;;;;;15.02;nan;-24236.16;4960079;28;20177;-69
2022/04/06 07:47:40;;;;;;;9.90;6.85;;;;;;;15.40;nan;-24246.50;4958489;28;20693;-67
2022/04/06 07:50:07;;;;;;;13.32;7.20;;;;;;;15.61;nan;-24252.25;4956097;28;20232;-68
2022/04/06 07:52:34;;;;;;;8.15;6.35;;;;;;;15.35;nan;-24245.13;4951804;29;20284;-70
2022/04/06 07:55:01;;;;;;;13.73;6.70;;;;;;;15.71;nan;-24255.19;4951429;28;20197;-69
2022/04/06 07:57:27;;;;;;;12.20;7.15;;;;;;;15.47;nan;-24248.63;4951271;28;20276;-68
2022/04/06 07:59:56;;;;;;;11.13;6.45;;;;;;;16.01;nan;-24263.44;4953465;29;20188;-71
2022/04/06 08:02:22;;;;;;;7.88;5.97;;;;;;;15.90;nan;-24260.50;4947271;29;20205;-68
2022/04/06 08:04:48;;;;;;;9.23;5.90;;;;;;;16.22;nan;-24269.19;4950538;29;20214;-67
2022/04/06 08:07:13;;;;;;;9.02;5.68;;;;;;;16.09;nan;-24265.69;4949409;28;20680;-69
2022/04/06 08:09:39;;;;;;;13.45;5.63;;;;;;;16.09;nan;-24265.56;4952442;29;20210;-67
2022/04/06 08:12:05;;;;;;;8.45;5.20;;;;;;;16.24;nan;-24269.88;4969757;28;20857;-68
2022/04/06 08:14:31;;;;;;;7.57;4.50;;;;;;;16.08;nan;-24265.41;4947819;28;20182;-67
2022/04/06 08:16:56;;;;;;;9.27;5.25;;;;;;;16.55;nan;-24278.28;4947523;29;20506;-69
2022/04/06 08:19:25;;;;;;;11.85;5.95;;;;;;;16.56;nan;-24278.53;4949750;28;20189;-71
2022/04/06 08:21:51;;;;;;;6.35;5.25;;;;;;;16.58;nan;-24279.13;4955238;29;20190;-69
2022/04/06 08:24:17;;;;;;;11.27;6.00;;;;;;;16.07;nan;-24265.00;4955089;29;20197;-68
2022/04/06 08:26:42;;;;;;;9.75;5.60;;;;;;;16.29;nan;-24271.13;4955478;29;20189;-69
2022/04/06 08:29:08;;;;;;;7.90;6.03;;;;;;;15.89;nan;-24260.09;4955279;28;20201;-69
2022/04/06 08:31:33;;;;;;;9.15;6.45;;;;;;;16.25;nan;-24270.03;4954890;29;20249;-72
2022/04/06 08:33:59;;;;;;;10.40;6.40;;;;;;;16.37;nan;-24273.25;4955883;29;20201;-69
2022/04/06 08:36:24;;;;;;;14.45;6.35;;;;;;;16.49;nan;-24276.72;4955890;29;20197;-72
2022/04/06 08:38:50;;;;;;;10.82;6.32;;;;;;;16.85;nan;-24286.50;4955561;29;20166;-67
2022/04/06 08:41:16;;;;;;;11.50;6.45;;;;;;;16.38;nan;-24273.66;4957211;29;20193;-71
2022/04/06 08:43:42;;;;;;;11.50;6.50;;;;;;;16.58;nan;-24279.13;4955175;28;20654;-72
2022/04/06 08:46:11;;;;;;;10.90;6.13;;;;;;;16.91;nan;-24288.34;4954554;28;20232;-69
2022/04/06 08:48:38;;;;;;;8.05;5.85;;;;;;;16.93;nan;-24288.75;4954840;28;20201;-69
2022/04/06 08:51:07;;;;;;;8.65;5.75;;;;;;;16.49;nan;-24276.59;4969716;28;20515;-68
2022/04/06 08:53:39;;;;;;;10.15;5.18;;;;;;;16.64;nan;-24280.78;4974425;28;20645;-72
2022/04/06 08:56:06;;;;;;;9.90;5.57;;;;;;;17.12;nan;-24294.06;4961333;28;20193;-68
2022/04/06 08:58:32;;;;;;;7.22;5.03;;;;;;;16.82;nan;-24285.69;4954818;28;20178;-72
2022/04/06 09:00:57;;;;;;;6.78;4.78;;;;;;;17.21;nan;-24296.56;4954854;29;20189;-71
2022/04/06 09:03:23;;;;;;;9.02;5.28;;;;;;;16.89;nan;-24287.63;4954665;29;20178;-69
2022/04/06 09:06:06;;;;;;;8.43;5.10;;;;;;;17.47;nan;-24303.81;4954386;28;20174;-69
2022/04/06 09:08:39;;;;;;;9.68;5.15;;;;;;;17.55;nan;-24306.06;4955097;29;20196;-72
2022/04/06 09:11:10;;;;;;;9.30;4.53;;;;;;;17.72;nan;-24310.66;4954650;28;20189;-73
2022/04/06 09:13:37;;;;;;;9.35;5.72;;;;;;;17.91;nan;-24315.81;4954113;28;20225;-68
2022/04/06 09:16:04;;;;;;;10.20;5.63;;;;;;;17.78;nan;-24312.19;4954804;28;20166;-70
2022/04/06 09:18:42;;;;;;;8.45;5.10;;;;;;;17.54;nan;-24305.78;4954516;28;20670;-70
2022/04/06 09:21:09;;;;;;;8.88;5.90;;;;;;;17.91;nan;-24315.81;4954379;28;20265;-71
2022/04/06 09:23:35;;;;;;;11.98;5.75;;;;;;;17.79;nan;-24312.47;4954286;28;20668;-68
2022/04/06 09:26:06;;;;;;;10.98;5.20;;;;;;;17.80;nan;-24312.91;4953643;28;20591;-71
2022/04/06 09:28:32;;;;;;;9.95;5.30;;;;;;;17.83;nan;-24313.75;4953019;28;20333;-71
2022/04/06 09:30:58;;;;;;;10.57;5.30;;;;;;;17.99;nan;-24318.19;4954487;28;20264;-71
2022/04/06 09:33:28;;;;;;;7.95;5.18;;;;;;;18.47;nan;-24331.28;4954390;28;20212;-72
2022/04/06 09:35:55;;;;;;;8.10;5.25;;;;;;;18.42;nan;-24330.03;4954149;28;20650;-70
2022/04/06 09:38:22;;;;;;;8.30;5.05;;;;;;;18.58;nan;-24334.22;4954078;28;20313;-68
2022/04/06 09:41:14;;;;;;;10.88;5.57;;;;;;;18.48;nan;-24331.56;4954553;28;20178;-71
2022/04/06 09:43:39;;;;;;;8.75;5.63;;;;;;;18.57;nan;-24333.94;4954476;28;20716;-68
2022/04/06 09:49:10;;;;;;;9.63;5.28;;;;;;;18.58;nan;-24334.22;4959549;28;20255;-69
2022/04/06 09:51:38;;;;;;;6.72;5.15;;;;;;;18.95;nan;-24344.66;4958714;28;20264;-71
2022/04/06 09:54:06;;;;;;;9.55;5.47;;;;;;;18.96;nan;-24344.81;4954676;28;20181;-68
2022/04/06 09:56:32;;;;;;;9.85;5.10;;;;;;;19.24;nan;-24352.59;4973179;28;20196;-67
2022/04/06 09:58:59;;;;;;;9.43;5.45;;;;;;;18.79;nan;-24340.06;4972474;28;20182;-68
2022/04/06 10:01:33;;;;;;;10.02;5.90;;;;;;;18.66;nan;-24336.44;4972913;28;20560;-69
2022/04/06 10:04:21;;;;;;;10.55;5.82;;;;;;;18.63;nan;-24335.75;4955902;28;20189;-69
2022/04/06 10:06:48;;;;;;;7.50;5.03;;;;;;;19.08;nan;-24348.00;4973527;28;20260;-71
2022/04/06 10:09:14;;;;;;;9.65;5.18;;;;;;;19.00;nan;-24345.91;4972930;28;20706;-69
2022/04/06 10:11:41;;;;;;;10.32;5.78;;;;;;;19.02;nan;-24346.47;4973044;28;20173;-71
2022/04/06 10:14:09;;;;;;;8.18;5.32;;;;;;;19.32;nan;-24354.81;4973342;28;20173;-71
2022/04/06 10:16:38;;;;;;;7.13;5.10;;;;;;;19.67;nan;-24364.44;4973159;28;20221;-69
2022/04/06 10:19:06;;;;;;;7.70;4.80;;;;;;;19.81;nan;-24368.19;4973192;28;20181;-72
2022/04/06 10:22:09;;;;;;;7.80;4.65;;;;;;;19.68;nan;-24364.56;4973285;28;20184;-70
2022/04/06 10:24:54;;;;;;;8.88;5.05;;;;;;;19.66;nan;-24364.16;4960418;28;20188;-72
2022/04/06 10:27:29;;;;;;;12.80;5.60;;;;;;;19.73;nan;-24365.94;4976074;28;20165;-67
2022/04/06 10:30:12;;;;;;;7.78;4.65;;;;;;;19.65;nan;-24363.88;4983846;28;20201;-70
2022/04/06 10:32:45;;;;;;;11.93;4.30;;;;;;;19.17;nan;-24350.66;4974368;28;20267;-69
2022/04/06 10:35:32;;;;;;;13.35;4.03;;;;;;;19.28;nan;-24353.56;4961043;28;20192;-69
2022/04/06 10:37:58;;;;;;;6.15;3.50;;;;;;;19.70;nan;-24365.13;4954646;28;20166;-70
2022/04/06 10:40:25;;;;;;;5.70;3.78;;;;;;;19.56;nan;-24361.22;4973193;28;20188;-70
2022/04/06 10:42:51;;;;;;;8.07;3.45;;;;;;;19.76;nan;-24366.78;4972989;28;20180;-71
2022/04/06 10:45:29;;;;;;;6.35;3.75;;;;;;;19.79;nan;-24367.75;4973142;28;20594;-71
2022/04/06 10:48:10;;;;;;;6.05;2.83;;;;;;;19.42;nan;-24357.59;4973285;28;20177;-72
2022/04/06 10:50:36;;;;;;;5.05;3.42;;;;;;;19.92;nan;-24371.09;4973090;28;20232;-67
2022/04/06 10:53:20;;;;;;;7.35;4.25;;;;;;;19.83;nan;-24368.88;4972809;28;20178;-67
2022/04/06 10:55:58;;;;;;;4.75;3.78;;;;;;;20.03;nan;-24374.28;4973849;28;20247;-68
2022/04/06 10:58:26;;;;;;;5.03;3.30;;;;;;;20.02;nan;-24373.88;4972744;28;20256;-72
2022/04/06 11:01:14;;;;;;;9.85;4.30;;;;;;;20.31;nan;-24381.94;4972798;28;20173;-68
2022/04/06 11:03:44;;;;;;;8.60;4.32;;;;;;;20.24;nan;-24380.00;4972676;28;20169;-68
2022/04/06 11:06:10;;;;;;;9.70;3.80;;;;;;;19.90;nan;-24370.53;4972548;28;20260;-69
2022/04/06 11:11:45;;;;;;;8.88;3.88;;;;;;;20.40;nan;-24384.28;4976569;28;20259;-72
2022/04/06 11:14:12;;;;;;;5.22;3.78;;;;;;;20.33;nan;-24382.50;4965001;28;20178;-71
2022/04/06 11:16:48;;;;;;;6.20;3.90;;;;;;;20.44;nan;-24385.41;4970039;28;20189;-69
2022/04/06 11:19:15;;;;;;;8.30;4.07;;;;;;;20.01;nan;-24373.72;4959819;28;20300;-69
2022/04/06 11:21:54;;;;;;;8.60;4.28;;;;;;;20.41;nan;-24384.56;4959078;28;20273;-69
2022/04/06 11:24:22;;;;;;;11.18;4.03;;;;;;;20.28;nan;-24381.09;4976119;28;20214;-72
2022/04/06 11:26:48;;;;;;;10.48;4.30;;;;;;;19.92;nan;-24371.22;4958481;28;20536;-68
2022/04/06 11:29:13;;;;;;;5.18;3.60;;;;;;;19.78;nan;-24367.34;4975883;28;20323;-72
2022/04/06 11:32:04;;;;;;;5.57;3.92;;;;;;;20.21;nan;-24379.28;4975890;28;20650;-69
2022/04/06 11:34:38;;;;;;;8.30;4.13;;;;;;;19.81;nan;-24368.19;4976170;28;20181;-68
2022/04/06 11:37:05;;;;;;;6.57;3.60;;;;;;;19.86;nan;-24369.56;4975727;28;20654;-72
2022/04/06 11:39:31;;;;;;;7.00;3.80;;;;;;;20.07;nan;-24375.41;4975725;28;20289;-71
2022/04/06 11:42:02;;;;;;;7.40;3.70;;;;;;;19.98;nan;-24372.91;4975668;28;20181;-71
2022/04/06 11:44:28;;;;;;;4.60;3.40;;;;;;;20.35;nan;-24383.03;4958537;28;20647;-67